Accueil
METAR-TAF:

METAR-TAF

Aéroports :

Aéroport international de Coni

Coni, Italie

latitude: 44-32-47N, longitude: 007-37-20E, altitude: 386 m

Observation

Le bulletin a été fait il y a 56 minutes, à 19:20 UTC
Vent 4 kt de sud-ouest
Température 0°C
Humidité 93%
Pression 1023 hPa
Visibilité: 7000 m

METAR: LIMZ 261920Z AUTO 23004KT 7000 NCD M00/M01 Q1023

Heure: 21:16 (20:16 UTC)

Prévision

Le bulletin a été fait il y a 3 heures et 16 minutes, à 17:00 UTC
Prévision valable du 26 à 18 UTC au 27 à 18 UTC
Vent 3 kt de direction variable
Visibilité: 8000 m
Temporairement
du 27 à 00 UTC au 27 à 06 UTC
Visibilité: 3000 m
brume

TAF: LIMZ 261700Z 2618/2718 VRB03KT 8000 TEMPO 2700/2706 3000 BR

Observations et prévisions météorologiques de plus de 4000 aéroports (messages METAR et TAF).

Les stations disponibles sont représentées par des disques jaunes et rouges sur la carte.

Passer la souris dessus pour voir le nom de la station.

Cliquer dessus pour voir les observations et prévisions météorologiques.

Pour changer de carte: cliquez sur les boutons verts avec une croix noire pour zoomer, sur le bouton vert avec un tiret pour effectuer un zoom arrière, ou sur les flèches vertes pour les cartes adjacentes.


METAR-TAF: